SPTN/TCQ METAR and TAF weather

Enter ICAO airport designator
Station Type Date Time Source
SPTN METAR 2021/08/01 19:00 UTC NOAA

SPTN 011900Z 23004KT 9999 FEW033 19/11 Q1016 RMK PP000


Station Type Date Time Source
SPTN Decoded METAR 2021/08/01 19:00 UTC NOAA

Tacna, Peru (SPTN) 18-04S 070-18W 469M
Aug 01, 2021 - 03:00 PM EDT / 2021.08.01 1900 UTC
Wind: from the SW (230 degrees) at 5 MPH (4 KT):0
Visibility: greater than 7 mile(s):0
Sky conditions: mostly clear
Temperature: 66 F (19 C)
Dew Point: 51 F (11 C)
Relative Humidity: 59%
Pressure (altimeter): 30.00 in. Hg (1016 hPa)
ob: SPTN 011900Z 23004KT 9999 FEW033 19/11 Q1016 RMK PP000
cycle: 19

Station Type Date Time Source
SPTN TAF 2021/08/01 18:33 UTC NOAA

TAF SPTN 011700Z 0118/0218 23008KT 9999 FEW030 TX19/0119Z TN13/0211Z
FM020000 VRB02KT 8000 OVC017
TEMPO 0212/0214 5000 BR OVC012
FM021500 22006KT 9999 BKN030

Example: see airport list